Time;durP1;ratioP1;P1;durP2;ratioP2;P2;SDS_P1;SDS_P2;PMS_P1;PMS_P2;Temp;Humidity;BMP_temperature;BMP_pressure;BME280_temperature;BME280_humidity;BME280_pressure;Samples;Min_cycle;Max_cycle;Signal;HPM_P1;HPM_P2
2024/03/24 00:01:56;;;;;;;;;;;4.00;99.90;;;;;;5020017;28;20219;-77
2024/03/24 00:04:21;;;;;;;;;;;4.00;99.90;;;;;;5026005;28;19917;-77
2024/03/24 00:06:47;;;;;;;;;;;4.00;99.90;;;;;;5055980;28;19924;-76
2024/03/24 00:09:13;;;;;;;;;;;4.00;99.90;;;;;;5009890;28;19917;-77
2024/03/24 00:11:43;;;;;;;;;;;4.10;99.90;;;;;;5059455;28;19917;-77
2024/03/24 00:14:09;;;;;;;;;;;4.10;99.90;;;;;;5072695;28;19960;-77
2024/03/24 00:16:35;;;;;;;;;;;4.10;99.90;;;;;;5045981;28;19916;-77
2024/03/24 00:19:03;;;;;;;;;;;4.10;99.90;;;;;;5079643;28;19932;-79
2024/03/24 00:21:28;;;;;;;;;;;4.10;99.90;;;;;;5086050;28;20004;-77
2024/03/24 00:23:54;;;;;;;;;;;4.10;99.90;;;;;;5054869;28;20272;-78
2024/03/24 00:26:20;;;;;;;;;;;4.10;99.90;;;;;;5058656;28;19992;-78
2024/03/24 00:28:45;;;;;;;;;;;4.10;99.90;;;;;;5038742;28;19928;-77
2024/03/24 00:31:11;;;;;;;;;;;4.10;99.90;;;;;;5046283;28;20120;-76
2024/03/24 00:33:37;;;;;;;;;;;4.20;99.90;;;;;;5034860;28;20401;-78
2024/03/24 00:36:02;;;;;;;;;;;4.20;99.90;;;;;;5058136;28;19999;-77
2024/03/24 00:38:28;;;;;;;;;;;4.20;99.90;;;;;;5037339;28;19924;-77
2024/03/24 00:40:54;;;;;;;;;;;4.20;99.90;;;;;;5052014;28;19944;-76
2024/03/24 00:43:20;;;;;;;;;;;4.20;99.90;;;;;;5034665;28;19913;-77
2024/03/24 00:45:48;;;;;;;;;;;4.20;99.90;;;;;;5017392;28;20389;-78
2024/03/24 00:48:14;;;;;;;;;;;4.30;99.90;;;;;;5053491;28;19917;-79
2024/03/24 00:50:39;;;;;;;;;;;4.30;99.90;;;;;;5037169;28;20293;-77
2024/03/24 00:53:05;;;;;;;;;;;4.30;99.90;;;;;;5037361;28;19944;-78
2024/03/24 00:55:31;;;;;;;;;;;4.30;99.90;;;;;;5060767;28;20000;-77
2024/03/24 00:57:56;;;;;;;;;;;4.30;99.90;;;;;;5050537;28;19959;-76
2024/03/24 01:00:22;;;;;;;;;;;4.40;99.90;;;;;;5043469;28;19940;-78
2024/03/24 01:02:48;;;;;;;;;;;4.30;99.90;;;;;;5052741;28;19924;-76
2024/03/24 01:05:14;;;;;;;;;;;4.30;99.90;;;;;;5068701;28;20004;-77
2024/03/24 01:07:40;;;;;;;;;;;4.30;99.90;;;;;;5055690;28;20023;-77
2024/03/24 01:10:06;;;;;;;;;;;4.40;99.90;;;;;;5034097;28;19967;-77
2024/03/24 01:12:33;;;;;;;;;;;4.30;99.90;;;;;;5035743;28;20209;-78
2024/03/24 01:14:59;;;;;;;;;;;4.30;99.90;;;;;;5069464;28;20630;-79
2024/03/24 01:17:25;;;;;;;;;;;4.30;99.90;;;;;;5034724;28;19913;-77
2024/03/24 01:19:51;;;;;;;;;;;4.30;99.90;;;;;;5041545;28;19979;-76
2024/03/24 01:22:17;;;;;;;;;;;4.30;99.90;;;;;;5035598;28;19940;-77
2024/03/24 01:24:43;;;;;;;;;;;4.30;99.90;;;;;;5001464;28;20322;-78
2024/03/24 01:27:08;;;;;;;;;;;4.30;99.90;;;;;;5025044;28;19974;-77
2024/03/24 01:29:34;;;;;;;;;;;4.30;99.90;;;;;;5055135;28;20454;-78
2024/03/24 01:31:59;;;;;;;;;;;4.30;99.90;;;;;;5036329;28;19913;-76
2024/03/24 01:34:25;;;;;;;;;;;4.30;99.90;;;;;;5049467;28;20365;-77
2024/03/24 01:36:51;;;;;;;;;;;4.30;99.90;;;;;;5088843;28;19916;-77
2024/03/24 01:39:16;;;;;;;;;;;4.20;99.90;;;;;;5071601;28;19917;-76
2024/03/24 01:41:42;;;;;;;;;;;4.20;99.90;;;;;;5043919;28;19917;-76
2024/03/24 01:44:07;;;;;;;;;;;4.20;99.90;;;;;;5018918;28;19928;-77
2024/03/24 01:46:33;;;;;;;;;;;4.30;99.90;;;;;;5002088;28;20004;-77
2024/03/24 01:48:59;;;;;;;;;;;4.30;99.90;;;;;;5071331;28;19923;-77
2024/03/24 01:51:24;;;;;;;;;;;4.30;99.90;;;;;;5000876;28;19917;-78
2024/03/24 01:53:50;;;;;;;;;;;4.30;99.90;;;;;;5042186;28;19914;-78
2024/03/24 01:56:16;;;;;;;;;;;4.20;99.90;;;;;;5018874;28;20352;-77
2024/03/24 01:58:41;;;;;;;;;;;4.20;99.90;;;;;;5017601;28;20322;-77
2024/03/24 02:01:08;;;;;;;;;;;4.20;99.90;;;;;;5034345;28;19939;-76
2024/03/24 02:03:36;;;;;;;;;;;4.20;99.90;;;;;;5036729;28;19979;-76
2024/03/24 02:06:02;;;;;;;;;;;4.30;99.90;;;;;;5051106;28;19979;-77
2024/03/24 02:08:28;;;;;;;;;;;4.30;99.90;;;;;;5068262;28;19925;-78
2024/03/24 02:10:54;;;;;;;;;;;4.30;99.90;;;;;;5023650;28;20222;-78
2024/03/24 02:13:20;;;;;;;;;;;4.20;99.90;;;;;;5045424;28;19993;-78
2024/03/24 02:15:48;;;;;;;;;;;4.10;99.90;;;;;;5064461;28;19921;-78
2024/03/24 02:18:15;;;;;;;;;;;4.10;99.90;;;;;;5031361;28;19917;-77
2024/03/24 02:20:41;;;;;;;;;;;4.10;99.90;;;;;;5059102;28;19942;-78
2024/03/24 02:23:07;;;;;;;;;;;4.10;99.90;;;;;;5036119;28;19988;-77
2024/03/24 02:25:33;;;;;;;;;;;4.10;99.90;;;;;;5038542;28;19925;-77
2024/03/24 02:27:59;;;;;;;;;;;4.10;99.90;;;;;;5047764;28;20214;-78
2024/03/24 02:30:24;;;;;;;;;;;4.10;99.90;;;;;;5087324;28;19913;-78
2024/03/24 02:32:50;;;;;;;;;;;4.10;99.90;;;;;;5052231;28;19916;-78
2024/03/24 02:35:16;;;;;;;;;;;4.10;99.90;;;;;;5007267;28;19913;-77
2024/03/24 02:37:41;;;;;;;;;;;4.10;99.90;;;;;;5041700;28;20139;-77
2024/03/24 02:40:09;;;;;;;;;;;4.10;99.90;;;;;;5051039;28;20432;-76
2024/03/24 02:42:34;;;;;;;;;;;4.10;99.90;;;;;;5045847;28;19983;-78
2024/03/24 02:45:00;;;;;;;;;;;4.00;99.90;;;;;;5046383;28;20330;-78
2024/03/24 02:47:26;;;;;;;;;;;4.10;99.90;;;;;;5031574;28;19921;-78
2024/03/24 02:49:51;;;;;;;;;;;4.10;99.90;;;;;;5040705;28;19974;-77
2024/03/24 02:52:18;;;;;;;;;;;4.10;99.90;;;;;;5059513;28;20282;-76
2024/03/24 02:54:44;;;;;;;;;;;4.10;99.90;;;;;;5034420;28;19913;-78
2024/03/24 02:57:09;;;;;;;;;;;4.10;99.90;;;;;;5017767;28;19927;-77
2024/03/24 02:59:35;;;;;;;;;;;4.10;99.90;;;;;;5055158;28;19916;-78
2024/03/24 03:02:02;;;;;;;;;;;4.10;99.90;;;;;;5028063;28;19932;-77
2024/03/24 03:04:28;;;;;;;;;;;4.20;99.90;;;;;;5000088;28;19918;-77
2024/03/24 03:06:54;;;;;;;;;;;4.10;99.90;;;;;;5051658;28;19921;-77
2024/03/24 03:09:20;;;;;;;;;;;4.10;99.90;;;;;;5070405;28;19943;-77
2024/03/24 03:11:45;;;;;;;;;;;4.20;99.90;;;;;;5008887;28;19925;-76
2024/03/24 03:14:11;;;;;;;;;;;4.20;99.90;;;;;;5051109;28;19924;-77
2024/03/24 03:16:38;;;;;;;;;;;4.20;99.90;;;;;;5052107;28;19913;-77
2024/03/24 03:19:04;;;;;;;;;;;4.20;99.90;;;;;;5050865;28;19967;-78
2024/03/24 03:21:29;;;;;;;;;;;4.20;99.90;;;;;;5014291;28;19921;-77
2024/03/24 03:23:55;;;;;;;;;;;4.20;99.90;;;;;;5033992;28;19929;-78
2024/03/24 03:26:21;;;;;;;;;;;4.20;99.90;;;;;;5061598;28;19917;-76
2024/03/24 03:28:47;;;;;;;;;;;4.20;99.90;;;;;;5049024;28;19928;-77
2024/03/24 03:31:12;;;;;;;;;;;4.20;99.90;;;;;;5050877;28;19921;-77
2024/03/24 03:33:38;;;;;;;;;;;4.20;99.90;;;;;;5003594;28;20007;-78
2024/03/24 03:36:04;;;;;;;;;;;4.20;99.90;;;;;;5018713;28;20208;-77
2024/03/24 03:38:30;;;;;;;;;;;4.30;99.90;;;;;;5046626;28;19928;-78
2024/03/24 03:40:56;;;;;;;;;;;4.30;99.90;;;;;;5044561;28;20637;-78
2024/03/24 03:43:23;;;;;;;;;;;4.30;99.90;;;;;;5067238;28;19925;-77
2024/03/24 03:45:49;;;;;;;;;;;4.30;99.90;;;;;;5035271;28;20408;-76
2024/03/24 03:48:15;;;;;;;;;;;4.30;99.90;;;;;;5047961;28;19928;-76
2024/03/24 03:50:41;;;;;;;;;;;4.30;99.90;;;;;;5035845;28;19917;-78
2024/03/24 03:53:07;;;;;;;;;;;4.30;99.90;;;;;;5041303;28;19917;-77
2024/03/24 03:55:33;;;;;;;;;;;4.30;99.90;;;;;;5062585;28;19917;-78
2024/03/24 03:57:59;;;;;;;;;;;4.30;99.90;;;;;;5047913;28;19928;-78
2024/03/24 04:00:25;;;;;;;;;;;4.30;99.90;;;;;;5035010;28;20003;-77
2024/03/24 04:02:51;;;;;;;;;;;4.40;99.90;;;;;;5022392;28;20024;-77
2024/03/24 04:05:17;;;;;;;;;;;4.30;99.90;;;;;;5045003;28;19924;-77
2024/03/24 04:07:43;;;;;;;;;;;4.40;99.90;;;;;;5037938;28;19917;-78
2024/03/24 04:10:09;;;;;;;;;;;4.40;99.90;;;;;;5071058;28;20353;-78
2024/03/24 04:12:36;;;;;;;;;;;4.40;99.90;;;;;;5037371;28;20465;-78
2024/03/24 04:15:01;;;;;;;;;;;4.50;99.90;;;;;;5050125;28;19913;-77
2024/03/24 04:17:27;;;;;;;;;;;4.40;99.90;;;;;;5058696;28;19913;-76
2024/03/24 04:19:53;;;;;;;;;;;4.40;99.90;;;;;;5036353;28;19940;-77
2024/03/24 04:22:19;;;;;;;;;;;4.40;99.90;;;;;;5042602;28;20219;-77
2024/03/24 04:24:48;;;;;;;;;;;4.50;99.90;;;;;;5055570;28;19936;-78
2024/03/24 04:27:13;;;;;;;;;;;4.40;99.90;;;;;;5031376;28;20246;-77
2024/03/24 04:29:39;;;;;;;;;;;4.50;99.90;;;;;;5052321;28;19928;-78
2024/03/24 04:32:05;;;;;;;;;;;4.50;99.90;;;;;;5037597;28;19917;-77
2024/03/24 04:34:31;;;;;;;;;;;4.50;99.90;;;;;;5036358;28;19913;-77
2024/03/24 04:36:57;;;;;;;;;;;4.50;99.90;;;;;;5069457;28;19921;-78
2024/03/24 04:39:24;;;;;;;;;;;4.50;99.90;;;;;;5051920;28;20276;-78
2024/03/24 04:41:49;;;;;;;;;;;4.50;99.90;;;;;;5038655;28;19960;-78
2024/03/24 04:44:15;;;;;;;;;;;4.50;99.90;;;;;;5043769;28;19968;-78
2024/03/24 04:46:41;;;;;;;;;;;4.50;99.90;;;;;;5032348;28;19921;-78
2024/03/24 04:49:07;;;;;;;;;;;4.50;99.90;;;;;;5053014;28;19917;-77
2024/03/24 04:51:34;;;;;;;;;;;4.60;99.90;;;;;;5019424;28;19921;-76
2024/03/24 04:54:02;;;;;;;;;;;4.60;99.90;;;;;;5020252;28;19978;-77
2024/03/24 04:56:27;;;;;;;;;;;4.60;99.90;;;;;;5016886;28;19948;-78
2024/03/24 04:58:53;;;;;;;;;;;4.50;99.90;;;;;;5046681;28;19955;-77
2024/03/24 05:01:19;;;;;;;;;;;4.60;99.90;;;;;;5013490;28;19924;-77
2024/03/24 05:03:44;;;;;;;;;;;4.60;99.90;;;;;;5049188;28;19921;-77
2024/03/24 05:06:10;;;;;;;;;;;4.60;99.90;;;;;;5063682;28;20203;-78
2024/03/24 05:08:39;;;;;;;;;;;4.60;99.90;;;;;;5040820;28;19996;-77
2024/03/24 05:11:09;;;;;;;;;;;4.60;99.90;;;;;;5020686;28;19913;-77
2024/03/24 05:13:35;;;;;;;;;;;4.60;99.90;;;;;;5032648;28;20254;-76
2024/03/24 05:16:01;;;;;;;;;;;4.70;99.90;;;;;;5030843;28;20355;-78
2024/03/24 05:18:26;;;;;;;;;;;4.60;99.90;;;;;;5034293;28;20028;-76
2024/03/24 05:20:52;;;;;;;;;;;4.60;99.90;;;;;;5054226;28;20556;-76
2024/03/24 05:23:18;;;;;;;;;;;4.70;99.90;;;;;;5035728;28;19928;-77
2024/03/24 05:25:48;;;;;;;;;;;4.60;99.90;;;;;;5002637;28;19913;-78
2024/03/24 05:28:13;;;;;;;;;;;4.60;99.90;;;;;;5065526;28;19917;-76
2024/03/24 05:30:39;;;;;;;;;;;4.60;99.90;;;;;;5037986;28;19913;-77
2024/03/24 05:33:04;;;;;;;;;;;4.60;99.90;;;;;;5036108;28;19913;-77
2024/03/24 05:35:30;;;;;;;;;;;4.60;99.90;;;;;;5050068;28;19943;-78
2024/03/24 05:37:56;;;;;;;;;;;4.70;99.90;;;;;;5061591;28;19913;-78
2024/03/24 05:40:22;;;;;;;;;;;4.70;99.90;;;;;;5035926;28;19924;-76
2024/03/24 05:42:50;;;;;;;;;;;4.60;99.90;;;;;;5034801;28;19917;-76
2024/03/24 05:45:16;;;;;;;;;;;4.70;99.90;;;;;;5019991;28;19922;-77
2024/03/24 05:47:43;;;;;;;;;;;4.70;99.90;;;;;;5019379;28;19967;-77
2024/03/24 05:50:09;;;;;;;;;;;4.70;99.90;;;;;;5017019;28;19913;-78
2024/03/24 05:52:36;;;;;;;;;;;4.70;99.90;;;;;;5058209;28;19972;-78
2024/03/24 05:55:04;;;;;;;;;;;4.60;99.90;;;;;;5080443;28;19920;-78
2024/03/24 05:57:33;;;;;;;;;;;4.60;99.90;;;;;;5034867;28;19928;-79
2024/03/24 05:59:59;;;;;;;;;;;4.50;99.90;;;;;;5072588;28;20301;-79
2024/03/24 06:02:26;;;;;;;;;;;4.50;99.90;;;;;;5001532;28;19921;-77
2024/03/24 06:04:55;;;;;;;;;;;4.50;99.90;;;;;;5034426;28;20023;-78
2024/03/24 06:07:22;;;;;;;;;;;4.50;99.90;;;;;;5026777;28;19917;-78
2024/03/24 06:09:48;;;;;;;;;;;4.50;99.90;;;;;;5047055;28;19928;-78
2024/03/24 06:12:15;;;;;;;;;;;4.50;99.90;;;;;;5018240;28;19913;-78
2024/03/24 06:14:41;;;;;;;;;;;4.50;99.90;;;;;;5034116;28;19917;-76
2024/03/24 06:17:07;;;;;;;;;;;4.50;99.90;;;;;;5042858;28;20647;-78
2024/03/24 06:19:33;;;;;;;;;;;4.40;99.90;;;;;;5027962;28;19927;-78
2024/03/24 06:21:59;;;;;;;;;;;4.40;99.90;;;;;;5056219;28;20384;-77
2024/03/24 06:24:24;;;;;;;;;;;4.40;99.90;;;;;;5045924;28;19913;-77
2024/03/24 06:26:50;;;;;;;;;;;4.40;99.90;;;;;;5027142;28;19913;-76
2024/03/24 06:29:16;;;;;;;;;;;4.40;99.90;;;;;;5035917;28;19984;-79
2024/03/24 06:31:42;;;;;;;;;;;4.40;99.90;;;;;;5052589;28;20018;-76
2024/03/24 06:34:07;;;;;;;;;;;4.40;99.90;;;;;;5034596;28;20122;-77
2024/03/24 06:36:34;;;;;;;;;;;4.40;99.90;;;;;;5031341;28;20290;-76
2024/03/24 06:39:00;;;;;;;;;;;4.40;99.90;;;;;;5050427;28;20010;-77
2024/03/24 06:41:27;;;;;;;;;;;4.40;99.90;;;;;;5069952;28;19995;-77
2024/03/24 06:43:53;;;;;;;;;;;4.40;99.90;;;;;;5016561;28;20012;-77
2024/03/24 06:46:20;;;;;;;;;;;4.50;99.90;;;;;;5018616;28;19988;-78
2024/03/24 06:48:46;;;;;;;;;;;4.50;99.90;;;;;;5017054;28;19925;-78
2024/03/24 06:51:11;;;;;;;;;;;4.50;99.90;;;;;;5050731;28;20011;-77
2024/03/24 06:53:37;;;;;;;;;;;4.50;99.90;;;;;;5034267;28;19921;-79
2024/03/24 06:56:03;;;;;;;;;;;4.60;99.90;;;;;;5018158;28;19940;-77
2024/03/24 06:58:28;;;;;;;;;;;4.60;99.90;;;;;;5001985;28;20261;-77
2024/03/24 07:00:54;;;;;;;;;;;4.60;99.90;;;;;;5050383;28;19917;-77
2024/03/24 07:03:20;;;;;;;;;;;4.60;99.90;;;;;;5036930;28;19931;-78
2024/03/24 07:05:46;;;;;;;;;;;4.60;99.90;;;;;;5060768;28;20015;-76
2024/03/24 07:08:11;;;;;;;;;;;4.60;99.90;;;;;;5030494;28;20012;-78
2024/03/24 07:10:37;;;;;;;;;;;4.60;99.90;;;;;;5039829;28;19925;-78
2024/03/24 07:13:03;;;;;;;;;;;4.60;99.90;;;;;;5039764;28;19959;-76
2024/03/24 07:15:29;;;;;;;;;;;4.50;99.90;;;;;;5054902;28;19913;-77
2024/03/24 07:17:55;;;;;;;;;;;4.60;99.90;;;;;;5006259;28;19917;-78
2024/03/24 07:20:21;;;;;;;;;;;4.60;99.90;;;;;;4999907;28;19917;-76
2024/03/24 07:22:46;;;;;;;;;;;4.60;99.90;;;;;;5034879;28;19913;-79
2024/03/24 07:25:14;;;;;;;;;;;4.70;99.90;;;;;;5001316;28;20328;-79
2024/03/24 07:27:40;;;;;;;;;;;4.70;99.90;;;;;;5019630;28;20416;-76
2024/03/24 07:30:06;;;;;;;;;;;4.70;99.90;;;;;;5011104;28;19952;-78
2024/03/24 07:32:35;;;;;;;;;;;4.70;99.90;;;;;;5027471;28;19917;-77
2024/03/24 07:35:01;;;;;;;;;;;4.70;99.90;;;;;;5036498;28;19917;-76
2024/03/24 07:37:30;;;;;;;;;;;4.70;99.90;;;;;;5053116;28;20320;-78
2024/03/24 07:39:59;;;;;;;;;;;4.80;99.90;;;;;;5037052;28;19917;-78
2024/03/24 07:42:25;;;;;;;;;;;4.80;99.90;;;;;;5004121;28;19917;-78
2024/03/24 07:44:51;;;;;;;;;;;4.80;99.90;;;;;;5021269;28;19920;-77
2024/03/24 07:47:18;;;;;;;;;;;4.80;99.90;;;;;;5027645;28;20396;-77
2024/03/24 07:49:44;;;;;;;;;;;4.80;99.90;;;;;;5021146;28;19917;-77
2024/03/24 07:52:10;;;;;;;;;;;4.90;99.90;;;;;;5020274;28;19917;-76
2024/03/24 07:54:35;;;;;;;;;;;5.00;99.90;;;;;;5054287;28;20566;-77
2024/03/24 07:57:02;;;;;;;;;;;5.00;99.90;;;;;;5005227;28;20004;-76
2024/03/24 07:59:27;;;;;;;;;;;5.10;99.90;;;;;;5037587;28;19913;-78
2024/03/24 08:01:53;;;;;;;;;;;5.10;99.90;;;;;;5055344;28;19944;-77
2024/03/24 08:04:19;;;;;;;;;;;5.20;99.90;;;;;;5045914;28;19923;-77
2024/03/24 08:06:45;;;;;;;;;;;5.20;99.90;;;;;;5071956;28;19925;-77
2024/03/24 08:09:11;;;;;;;;;;;5.20;99.90;;;;;;5053232;28;19917;-77
2024/03/24 08:11:37;;;;;;;;;;;5.30;99.90;;;;;;5079920;28;19913;-76
2024/03/24 08:14:03;;;;;;;;;;;5.40;99.90;;;;;;5052348;28;19947;-78
2024/03/24 08:16:28;;;;;;;;;;;5.40;99.90;;;;;;5003648;28;19917;-77
2024/03/24 08:18:55;;;;;;;;;;;5.50;99.90;;;;;;5032350;28;19921;-77
2024/03/24 08:21:21;;;;;;;;;;;5.50;99.90;;;;;;5041180;28;19917;-77
2024/03/24 08:23:47;;;;;;;;;;;5.50;99.90;;;;;;5061901;28;19945;-78
2024/03/24 08:26:12;;;;;;;;;;;5.50;99.90;;;;;;5051886;28;20257;-78
2024/03/24 08:28:38;;;;;;;;;;;5.50;99.90;;;;;;5073224;28;19928;-78
2024/03/24 08:31:04;;;;;;;;;;;5.50;99.90;;;;;;5043156;28;20303;-78
2024/03/24 08:33:33;;;;;;;;;;;5.60;99.90;;;;;;5038967;28;19916;-78
2024/03/24 08:36:00;;;;;;;;;;;5.80;99.90;;;;;;5050987;28;19918;-78
2024/03/24 08:38:26;;;;;;;;;;;6.10;99.90;;;;;;5036606;28;20003;-79
2024/03/24 08:40:52;;;;;;;;;;;6.00;99.90;;;;;;5065240;28;19917;-79
2024/03/24 08:43:17;;;;;;;;;;;6.00;99.90;;;;;;5017955;28;19921;-80
2024/03/24 08:45:43;;;;;;;;;;;5.90;99.90;;;;;;5019105;28;19925;-79
2024/03/24 08:48:08;;;;;;;;;;;5.90;99.90;;;;;;5002421;28;19921;-78
2024/03/24 08:50:34;;;;;;;;;;;6.00;99.90;;;;;;4999808;28;19917;-80
2024/03/24 08:53:00;;;;;;;;;;;6.10;99.90;;;;;;5045179;28;19913;-80
2024/03/24 08:55:26;;;;;;;;;;;6.30;99.90;;;;;;5054498;28;19928;-78
2024/03/24 08:57:52;;;;;;;;;;;6.40;99.90;;;;;;5025661;28;19913;-79
2024/03/24 09:00:18;;;;;;;;;;;6.50;99.90;;;;;;5042347;28;19913;-80
2024/03/24 09:02:43;;;;;;;;;;;6.40;99.90;;;;;;5051445;28;19953;-82
2024/03/24 09:05:09;;;;;;;;;;;6.40;99.90;;;;;;5050369;28;20250;-80
2024/03/24 09:07:34;;;;;;;;;;;6.40;99.90;;;;;;5051837;28;19928;-80
2024/03/24 09:10:00;;;;;;;;;;;6.30;99.90;;;;;;5034934;28;19967;-80
2024/03/24 09:12:26;;;;;;;;;;;6.30;99.90;;;;;;5018423;28;19955;-80
2024/03/24 09:14:51;;;;;;;;;;;6.20;99.90;;;;;;5053444;28;19916;-80
2024/03/24 09:17:17;;;;;;;;;;;6.10;99.90;;;;;;5055039;28;19917;-79
2024/03/24 09:19:44;;;;;;;;;;;6.10;99.90;;;;;;5017434;28;19921;-78
2024/03/24 09:22:10;;;;;;;;;;;6.20;99.90;;;;;;5033617;28;20016;-79
2024/03/24 09:24:35;;;;;;;;;;;6.00;99.90;;;;;;5037087;28;19995;-78
2024/03/24 09:27:02;;;;;;;;;;;6.00;99.90;;;;;;5035148;28;20280;-80
2024/03/24 09:29:28;;;;;;;;;;;5.80;99.90;;;;;;5053655;28;20376;-79
2024/03/24 09:31:54;;;;;;;;;;;5.70;99.90;;;;;;5050093;28;19913;-78
2024/03/24 09:34:20;;;;;;;;;;;5.60;99.90;;;;;;5053852;28;20074;-79
2024/03/24 09:36:45;;;;;;;;;;;5.60;99.90;;;;;;5071286;28;19917;-79
2024/03/24 09:39:13;;;;;;;;;;;5.50;99.90;;;;;;5042346;28;19924;-79
2024/03/24 09:41:43;;;;;;;;;;;5.60;99.90;;;;;;5045477;28;19913;-80
2024/03/24 09:44:12;;;;;;;;;;;5.50;99.90;;;;;;5028911;28;19913;-81
2024/03/24 09:46:44;;;;;;;;;;;5.50;99.90;;;;;;5041585;28;20695;-80
2024/03/24 09:49:15;;;;;;;;;;;5.50;99.90;;;;;;5030217;28;19928;-80
2024/03/24 09:51:41;;;;;;;;;;;5.50;99.90;;;;;;5050855;28;19928;-80
2024/03/24 09:54:10;;;;;;;;;;;5.50;99.90;;;;;;5041413;28;20337;-79
2024/03/24 09:56:37;;;;;;;;;;;5.50;99.90;;;;;;5034650;28;19917;-80
2024/03/24 09:59:03;;;;;;;;;;;5.50;99.90;;;;;;5040349;28;19921;-78
2024/03/24 10:01:32;;;;;;;;;;;5.50;99.90;;;;;;5045757;28;20422;-79
2024/03/24 10:03:58;;;;;;;;;;;5.60;99.90;;;;;;5041584;28;20432;-80
2024/03/24 10:06:27;;;;;;;;;;;5.70;99.90;;;;;;5034252;28;20012;-79
2024/03/24 10:08:53;;;;;;;;;;;5.70;99.90;;;;;;5023567;28;19925;-80
2024/03/24 10:11:29;;;;;;;;;;;5.80;99.90;;;;;;5054385;28;19913;-78
2024/03/24 10:13:59;;;;;;;;;;;5.90;99.90;;;;;;5038226;28;19913;-79
2024/03/24 10:16:25;;;;;;;;;;;6.00;99.90;;;;;;5034161;28;20285;-80
2024/03/24 10:18:51;;;;;;;;;;;6.10;99.90;;;;;;5014448;28;19975;-78
2024/03/24 10:21:17;;;;;;;;;;;6.20;99.90;;;;;;5064946;28;19972;-79
2024/03/24 10:23:43;;;;;;;;;;;6.30;99.90;;;;;;5040500;28;19932;-80
2024/03/24 10:26:14;;;;;;;;;;;6.40;99.90;;;;;;5049189;28;20330;-80
2024/03/24 10:28:40;;;;;;;;;;;6.40;99.90;;;;;;5033600;28;20692;-80
2024/03/24 10:31:06;;;;;;;;;;;6.50;99.90;;;;;;5018205;28;19920;-79
2024/03/24 10:33:32;;;;;;;;;;;6.50;99.90;;;;;;5052471;28;20399;-79
2024/03/24 10:35:58;;;;;;;;;;;6.60;99.90;;;;;;5033702;28;19996;-79
2024/03/24 10:38:23;;;;;;;;;;;6.60;99.90;;;;;;5042444;28;20028;-79
2024/03/24 10:40:51;;;;;;;;;;;6.70;99.90;;;;;;5031859;28;20447;-78
2024/03/24 10:43:17;;;;;;;;;;;6.70;99.90;;;;;;5064554;28;20596;-80
2024/03/24 10:45:42;;;;;;;;;;;6.70;99.90;;;;;;5040904;28;19921;-79
2024/03/24 10:48:09;;;;;;;;;;;6.80;99.90;;;;;;5032710;28;20339;-78
2024/03/24 10:50:35;;;;;;;;;;;6.80;99.90;;;;;;5021573;28;20052;-79
2024/03/24 10:53:02;;;;;;;;;;;6.80;99.90;;;;;;5056469;28;19917;-79
2024/03/24 10:55:28;;;;;;;;;;;6.90;99.90;;;;;;5034913;28;19914;-79
2024/03/24 10:57:54;;;;;;;;;;;6.90;99.90;;;;;;5069497;28;19917;-78
2024/03/24 11:00:27;;;;;;;;;;;6.90;99.90;;;;;;5041250;28;20058;-78
2024/03/24 11:02:57;;;;;;;;;;;7.00;99.90;;;;;;5021812;28;20269;-79
2024/03/24 11:05:23;;;;;;;;;;;7.00;99.90;;;;;;5038893;28;20330;-79
2024/03/24 11:07:48;;;;;;;;;;;7.10;99.90;;;;;;5055044;28;19935;-79
2024/03/24 11:10:14;;;;;;;;;;;7.10;99.90;;;;;;5047450;28;20007;-79
2024/03/24 11:12:40;;;;;;;;;;;7.10;99.90;;;;;;5022328;28;20697;-79
2024/03/24 11:15:09;;;;;;;;;;;7.20;99.90;;;;;;5021860;28;19917;-80
2024/03/24 11:17:35;;;;;;;;;;;7.20;99.90;;;;;;5038151;28;19917;-80
2024/03/24 11:20:03;;;;;;;;;;;7.30;99.90;;;;;;5040507;28;19975;-80
2024/03/24 11:22:35;;;;;;;;;;;7.30;99.90;;;;;;5050574;28;19947;-79
2024/03/24 11:25:04;;;;;;;;;;;7.40;99.90;;;;;;5035033;28;19923;-79
2024/03/24 11:27:29;;;;;;;;;;;7.40;99.90;;;;;;5021934;28;20008;-79
2024/03/24 11:29:56;;;;;;;;;;;7.40;99.90;;;;;;5032335;28;19999;-79
2024/03/24 11:32:23;;;;;;;;;;;7.50;99.90;;;;;;5056154;28;20305;-80
2024/03/24 11:34:49;;;;;;;;;;;7.50;99.90;;;;;;5037982;28;19963;-79
2024/03/24 11:37:15;;;;;;;;;;;7.50;99.90;;;;;;5034872;28;20000;-80
2024/03/24 11:39:41;;;;;;;;;;;7.60;99.90;;;;;;5005545;28;19917;-80
2024/03/24 11:42:09;;;;;;;;;;;7.60;99.90;;;;;;5006855;28;19913;-80
2024/03/24 11:44:35;;;;;;;;;;;7.80;99.90;;;;;;5042726;28;19923;-80
2024/03/24 11:47:04;;;;;;;;;;;7.80;99.90;;;;;;5047256;28;19917;-80
2024/03/24 11:49:33;;;;;;;;;;;7.80;99.90;;;;;;5052591;28;19964;-80
2024/03/24 11:51:59;;;;;;;;;;;7.80;99.90;;;;;;5019477;28;19956;-79
2024/03/24 11:54:25;;;;;;;;;;;7.80;99.90;;;;;;5026362;28;20276;-79
2024/03/24 11:56:51;;;;;;;;;;;7.80;99.90;;;;;;5054271;28;20234;-79
2024/03/24 11:59:16;;;;;;;;;;;7.90;99.90;;;;;;5018336;28;19917;-79
2024/03/24 12:01:42;;;;;;;;;;;8.00;99.90;;;;;;5022053;28;20011;-79
2024/03/24 12:04:08;;;;;;;;;;;8.20;99.90;;;;;;5040104;28;19932;-78
2024/03/24 12:06:33;;;;;;;;;;;8.20;99.90;;;;;;5018898;28;19975;-79
2024/03/24 12:08:59;;;;;;;;;;;8.20;99.90;;;;;;5049040;28;19921;-79
2024/03/24 12:11:25;;;;;;;;;;;8.10;99.90;;;;;;5044979;28;19914;-78
2024/03/24 12:13:51;;;;;;;;;;;8.20;99.90;;;;;;5062126;28;20233;-78
2024/03/24 12:16:16;;;;;;;;;;;8.20;99.90;;;;;;5065948;28;20359;-78
2024/03/24 12:18:43;;;;;;;;;;;8.20;99.90;;;;;;5034128;28;20173;-79
2024/03/24 12:21:09;;;;;;;;;;;8.20;99.90;;;;;;5065940;28;19996;-78
2024/03/24 12:23:35;;;;;;;;;;;8.20;99.90;;;;;;5072001;28;19983;-79
2024/03/24 12:26:01;;;;;;;;;;;8.40;99.90;;;;;;4997962;28;19961;-77
2024/03/24 12:28:27;;;;;;;;;;;8.70;99.90;;;;;;5035039;28;19964;-77
2024/03/24 12:30:54;;;;;;;;;;;9.00;99.90;;;;;;5020253;28;19917;-77
2024/03/24 12:33:22;;;;;;;;;;;8.90;99.90;;;;;;5040951;28;19913;-77
2024/03/24 12:35:49;;;;;;;;;;;8.80;99.90;;;;;;5019676;28;20312;-79
2024/03/24 12:38:15;;;;;;;;;;;8.70;99.90;;;;;;5066853;28;19918;-76
2024/03/24 12:41:10;;;;;;;;;;;8.60;99.90;;;;;;5069525;28;20249;-77
2024/03/24 12:43:36;;;;;;;;;;;8.60;99.90;;;;;;5013449;28;19971;-77
2024/03/24 12:46:01;;;;;;;;;;;8.60;99.90;;;;;;5044223;28;19994;-76
2024/03/24 12:48:28;;;;;;;;;;;8.50;99.90;;;;;;5074322;28;19928;-77
2024/03/24 12:50:57;;;;;;;;;;;8.50;99.90;;;;;;5003619;28;19918;-76
2024/03/24 12:53:28;;;;;;;;;;;8.60;99.90;;;;;;5044866;28;19917;-76
2024/03/24 12:55:58;;;;;;;;;;;8.60;99.90;;;;;;5068933;28;19921;-77
2024/03/24 12:58:25;;;;;;;;;;;8.50;99.90;;;;;;5045639;28;19979;-78
2024/03/24 13:00:51;;;;;;;;;;;8.60;99.90;;;;;;5019811;28;19917;-78
2024/03/24 13:03:17;;;;;;;;;;;8.50;99.90;;;;;;5052167;28;19925;-79
2024/03/24 13:05:43;;;;;;;;;;;8.50;99.90;;;;;;5036909;28;19979;-78
2024/03/24 13:08:09;;;;;;;;;;;8.40;99.90;;;;;;5017878;28;19921;-77
2024/03/24 13:10:34;;;;;;;;;;;8.40;99.90;;;;;;5029985;28;19947;-77
2024/03/24 13:13:00;;;;;;;;;;;8.30;99.90;;;;;;5083624;28;19917;-77
2024/03/24 13:15:34;;;;;;;;;;;8.20;99.90;;;;;;5037929;28;19913;-76
2024/03/24 13:18:22;;;;;;;;;;;8.20;99.90;;;;;;5051642;28;19917;-77
2024/03/24 13:20:49;;;;;;;;;;;8.10;99.90;;;;;;5018061;28;19940;-77
2024/03/24 13:23:16;;;;;;;;;;;8.10;99.90;;;;;;5072934;28;19914;-78
2024/03/24 13:25:48;;;;;;;;;;;8.20;99.90;;;;;;5035285;28;19917;-78
2024/03/24 13:28:17;;;;;;;;;;;8.20;99.90;;;;;;5061703;28;19925;-78
2024/03/24 13:30:49;;;;;;;;;;;8.20;99.90;;;;;;5035561;28;19967;-77
2024/03/24 13:33:16;;;;;;;;;;;8.10;99.90;;;;;;5044132;28;19917;-77
2024/03/24 13:35:42;;;;;;;;;;;8.20;99.90;;;;;;5052219;28;20345;-77
2024/03/24 13:38:27;;;;;;;;;;;8.10;99.90;;;;;;5009009;28;19928;-77
2024/03/24 13:40:53;;;;;;;;;;;8.10;99.90;;;;;;5046651;28;19917;-79
2024/03/24 13:43:27;;;;;;;;;;;7.80;99.90;;;;;;5051211;28;19921;-78
2024/03/24 13:46:20;;;;;;;;;;;8.10;99.90;;;;;;5034953;28;19917;-77
2024/03/24 13:48:49;;;;;;;;;;;8.00;99.90;;;;;;5037025;28;20582;-77
2024/03/24 13:51:15;;;;;;;;;;;7.90;99.90;;;;;;5002083;28;19924;-77
2024/03/24 13:53:42;;;;;;;;;;;7.80;99.90;;;;;;5001663;28;19916;-76
2024/03/24 13:56:08;;;;;;;;;;;7.90;99.90;;;;;;5019065;28;20562;-76
2024/03/24 13:58:33;;;;;;;;;;;7.80;99.90;;;;;;5066695;28;19917;-78
2024/03/24 14:01:00;;;;;;;;;;;7.80;99.90;;;;;;5015370;28;20000;-79
2024/03/24 14:03:27;;;;;;;;;;;7.80;99.90;;;;;;5045676;28;20015;-78
2024/03/24 14:05:52;;;;;;;;;;;7.70;99.90;;;;;;5033945;28;19928;-77
2024/03/24 14:08:18;;;;;;;;;;;7.70;99.90;;;;;;5044390;28;19943;-77
2024/03/24 14:10:44;;;;;;;;;;;7.70;99.90;;;;;;5034865;28;20252;-77
2024/03/24 14:13:11;;;;;;;;;;;7.60;99.90;;;;;;5033214;28;19913;-78
2024/03/24 14:15:55;;;;;;;;;;;7.60;99.90;;;;;;5030540;28;20652;-77
2024/03/24 14:18:40;;;;;;;;;;;7.60;99.90;;;;;;5058431;28;19924;-77
2024/03/24 14:21:09;;;;;;;;;;;7.50;99.90;;;;;;5035787;28;19913;-78
2024/03/24 14:23:41;;;;;;;;;;;7.50;99.90;;;;;;5018310;28;19957;-76
2024/03/24 14:26:06;;;;;;;;;;;7.50;99.90;;;;;;5062984;28;19916;-77
2024/03/24 14:28:32;;;;;;;;;;;7.60;99.90;;;;;;5017223;28;20301;-78